createdAt,value
2019-03-17T00:00:40.792Z,3.50
2019-03-17T00:03:10.452Z,3.60
2019-03-17T00:05:40.120Z,3.60
2019-03-17T00:08:09.788Z,3.60
2019-03-17T00:10:39.458Z,3.60
2019-03-17T00:13:09.186Z,3.60
2019-03-17T00:15:38.869Z,3.60
2019-03-17T00:18:08.531Z,3.70
2019-03-17T00:20:38.178Z,3.70
2019-03-17T00:23:07.688Z,3.70
2019-03-17T00:25:37.417Z,3.70
2019-03-17T00:28:07.064Z,3.70
2019-03-17T00:30:36.727Z,3.70
2019-03-17T00:33:06.384Z,3.70
2019-03-17T00:35:55.369Z,3.70
2019-03-17T00:38:25.057Z,3.70
2019-03-17T00:40:54.645Z,3.70
2019-03-17T00:43:24.254Z,3.70
2019-03-17T00:45:53.866Z,3.70
2019-03-17T00:48:23.512Z,3.70
2019-03-17T00:50:53.172Z,3.70
2019-03-17T00:53:22.815Z,3.70
2019-03-17T00:55:52.499Z,3.70
2019-03-17T00:58:22.127Z,3.70
2019-03-17T01:00:51.818Z,3.70
2019-03-17T01:03:21.584Z,3.70
2019-03-17T01:05:51.224Z,3.70
2019-03-17T01:08:20.909Z,3.70
2019-03-17T01:10:50.652Z,3.70
2019-03-17T01:13:20.294Z,3.70
2019-03-17T01:15:49.974Z,3.70
2019-03-17T01:18:19.646Z,3.70
2019-03-17T01:20:49.281Z,3.70
2019-03-17T01:23:18.878Z,3.70
2019-03-17T01:25:48.524Z,3.70
2019-03-17T01:28:19.265Z,3.70
2019-03-17T01:30:48.933Z,3.70
2019-03-17T01:33:18.646Z,3.60
2019-03-17T01:35:48.316Z,3.60
2019-03-17T01:38:17.965Z,3.60
2019-03-17T01:40:47.679Z,3.60
2019-03-17T01:43:17.360Z,3.60
2019-03-17T01:45:47.043Z,3.60
2019-03-17T01:48:16.668Z,3.60
2019-03-17T01:50:46.255Z,3.60
2019-03-17T01:53:15.962Z,3.50
2019-03-17T01:55:45.538Z,3.50
2019-03-17T01:58:15.198Z,3.50
2019-03-17T02:00:44.938Z,3.50
2019-03-17T02:03:14.647Z,3.50
2019-03-17T02:05:44.377Z,3.40
2019-03-17T02:08:14.123Z,3.40
2019-03-17T02:10:43.864Z,3.40
2019-03-17T02:13:13.611Z,3.40
2019-03-17T02:15:43.194Z,3.40
2019-03-17T02:18:12.852Z,3.40
2019-03-17T02:20:42.522Z,3.30
2019-03-17T02:23:12.174Z,3.30
2019-03-17T02:25:41.882Z,3.30
2019-03-17T02:28:11.494Z,3.30
2019-03-17T02:30:41.126Z,3.30
2019-03-17T02:33:10.739Z,3.30
2019-03-17T02:35:40.454Z,3.30
2019-03-17T02:38:10.143Z,3.30
2019-03-17T02:40:39.910Z,3.20
2019-03-17T02:43:09.671Z,3.20
2019-03-17T02:45:39.377Z,3.20
2019-03-17T02:48:09.059Z,3.20
2019-03-17T02:50:38.721Z,3.20
2019-03-17T02:53:08.445Z,3.10
2019-03-17T02:55:38.128Z,3.10
2019-03-17T02:58:07.721Z,3.10
2019-03-17T03:00:37.437Z,3.10
2019-03-17T03:03:07.179Z,3.00
2019-03-17T03:05:53.105Z,3.00
2019-03-17T03:08:08.085Z,3.00
2019-03-17T03:10:37.733Z,2.90
2019-03-17T03:13:07.401Z,2.90
2019-03-17T03:15:37.003Z,2.90
2019-03-17T03:18:06.661Z,2.80
2019-03-17T03:20:36.332Z,2.80
2019-03-17T03:23:06.056Z,2.70
2019-03-17T03:25:35.713Z,2.70
2019-03-17T03:28:05.366Z,2.70
2019-03-17T03:30:35.102Z,2.60
2019-03-17T03:33:04.765Z,2.60
2019-03-17T03:35:34.509Z,2.50
2019-03-17T03:38:04.237Z,2.60
2019-03-17T03:40:34.041Z,2.50
2019-03-17T03:43:05.129Z,2.50
2019-03-17T03:45:34.824Z,2.50
2019-03-17T03:48:04.376Z,2.40
2019-03-17T03:50:33.976Z,2.40
2019-03-17T03:53:03.715Z,2.30
2019-03-17T03:55:33.365Z,2.30
2019-03-17T03:58:03.031Z,2.30
2019-03-17T04:00:32.772Z,2.20
2019-03-17T04:03:02.385Z,2.20
2019-03-17T04:05:32.976Z,2.20
2019-03-17T04:08:02.864Z,2.10
2019-03-17T04:10:32.525Z,2.00
2019-03-17T04:13:02.154Z,2.00
2019-03-17T04:15:31.894Z,2.00
2019-03-17T04:18:01.557Z,2.00
2019-03-17T04:20:31.282Z,2.00
2019-03-17T04:23:00.871Z,1.90
2019-03-17T04:25:30.607Z,1.90
2019-03-17T04:28:00.321Z,1.90
2019-03-17T04:30:30.068Z,1.90
2019-03-17T04:32:59.713Z,1.90
2019-03-17T04:35:29.388Z,1.90
2019-03-17T04:37:59.194Z,1.80
2019-03-17T04:40:28.886Z,1.80
2019-03-17T04:42:58.843Z,1.80
2019-03-17T04:45:28.415Z,1.80
2019-03-17T04:47:58.288Z,1.80
2019-03-17T04:50:27.961Z,1.80
2019-03-17T04:52:57.663Z,1.80
2019-03-17T04:55:27.404Z,1.80
2019-03-17T04:57:57.107Z,1.80
2019-03-17T05:00:26.703Z,1.80
2019-03-17T05:02:56.379Z,1.80
2019-03-17T05:05:26.101Z,1.80
2019-03-17T05:07:55.841Z,1.80
2019-03-17T05:10:25.498Z,1.80
2019-03-17T05:12:55.279Z,1.80
2019-03-17T05:15:24.929Z,1.80
2019-03-17T05:17:54.593Z,1.80
2019-03-17T05:20:24.286Z,1.80
2019-03-17T05:22:54.060Z,1.80
2019-03-17T05:25:23.785Z,1.80
2019-03-17T05:27:53.442Z,1.80
2019-03-17T05:30:23.109Z,1.80
2019-03-17T05:32:52.876Z,1.90
2019-03-17T05:35:22.618Z,1.80
2019-03-17T05:37:52.261Z,1.90
2019-03-17T05:40:22.014Z,1.90
2019-03-17T05:42:51.679Z,1.80
2019-03-17T05:45:21.262Z,1.90
2019-03-17T05:47:51.011Z,1.90
2019-03-17T05:50:20.709Z,1.90
2019-03-17T05:52:50.434Z,1.90
2019-03-17T05:55:20.110Z,2.00
2019-03-17T05:57:49.764Z,2.00
2019-03-17T06:00:19.791Z,2.00
2019-03-17T06:02:49.441Z,2.00
2019-03-17T06:05:19.365Z,2.10
2019-03-17T06:07:49.004Z,2.10
2019-03-17T06:10:18.827Z,2.20
2019-03-17T06:12:48.499Z,2.20
2019-03-17T06:15:18.052Z,2.20
2019-03-17T06:17:47.707Z,2.30
2019-03-17T06:20:17.362Z,2.30
2019-03-17T06:22:47.064Z,2.40
2019-03-17T06:25:16.799Z,2.40
2019-03-17T06:27:46.538Z,2.40
2019-03-17T06:30:16.251Z,2.50
2019-03-17T06:32:45.920Z,2.50
2019-03-17T06:35:15.607Z,2.60
2019-03-17T06:37:45.318Z,2.60
2019-03-17T06:40:15.023Z,2.70
2019-03-17T06:42:44.760Z,2.70
2019-03-17T06:45:14.492Z,2.80
2019-03-17T06:47:44.141Z,2.80
2019-03-17T06:50:16.708Z,2.90
2019-03-17T06:52:46.374Z,2.90
2019-03-17T06:55:17.336Z,3.00
2019-03-17T06:57:47.058Z,3.00
2019-03-17T07:00:16.721Z,3.10
2019-03-17T07:02:46.430Z,3.10
2019-03-17T07:05:16.102Z,3.10
2019-03-17T07:07:45.882Z,3.20
2019-03-17T07:10:15.553Z,3.20
2019-03-17T07:12:45.139Z,3.30
2019-03-17T07:15:14.747Z,3.30
2019-03-17T07:17:44.384Z,3.40
2019-03-17T07:20:14.760Z,3.40
2019-03-17T07:22:44.356Z,3.50
2019-03-17T07:25:13.948Z,3.50
2019-03-17T07:27:43.672Z,3.60
2019-03-17T07:30:16.814Z,3.60
2019-03-17T07:32:46.482Z,3.70
2019-03-17T07:35:17.141Z,3.70
2019-03-17T07:37:56.060Z,3.80
2019-03-17T07:40:18.137Z,3.80
2019-03-17T07:42:47.877Z,3.90
2019-03-17T07:45:17.607Z,3.90
2019-03-17T07:47:47.291Z,4.00
2019-03-17T07:50:17.050Z,4.00
2019-03-17T07:52:46.722Z,4.10
2019-03-17T07:55:16.339Z,4.20
2019-03-17T07:57:46.041Z,4.20
2019-03-17T08:00:15.690Z,4.20
2019-03-17T08:02:45.303Z,4.30
2019-03-17T08:05:15.006Z,4.40
2019-03-17T08:07:44.654Z,4.40
2019-03-17T08:10:35.152Z,4.40
2019-03-17T08:13:04.740Z,4.50
2019-03-17T08:15:34.489Z,4.60
2019-03-17T08:18:04.137Z,4.60
2019-03-17T08:20:34.851Z,4.70
2019-03-17T08:23:04.572Z,4.80
2019-03-17T08:25:34.152Z,4.80
2019-03-17T08:28:03.820Z,4.90
2019-03-17T08:30:33.641Z,5.00
2019-03-17T08:33:03.355Z,5.00
2019-03-17T08:35:33.024Z,5.10
2019-03-17T08:38:02.762Z,5.20
2019-03-17T08:40:32.398Z,5.30
2019-03-17T08:43:01.996Z,5.40
2019-03-17T08:45:31.573Z,5.50
2019-03-17T08:48:01.218Z,5.50
2019-03-17T08:50:30.869Z,5.70
2019-03-17T08:53:00.589Z,5.70
2019-03-17T08:55:30.317Z,5.80
2019-03-17T08:57:59.976Z,5.90
2019-03-17T09:00:29.704Z,6.00
2019-03-17T09:02:59.363Z,6.10
2019-03-17T09:05:29.128Z,6.20
2019-03-17T09:07:58.792Z,6.30
2019-03-17T09:10:28.377Z,6.40
2019-03-17T09:12:58.031Z,6.50
2019-03-17T09:15:27.662Z,6.60
2019-03-17T09:17:57.420Z,6.70
2019-03-17T09:20:39.305Z,6.70
2019-03-17T09:23:09.922Z,6.80
2019-03-17T09:25:39.517Z,6.90
2019-03-17T09:28:09.204Z,7.00
2019-03-17T09:30:38.931Z,7.10
2019-03-17T09:33:08.580Z,7.10
2019-03-17T09:35:38.236Z,7.20
2019-03-17T09:38:10.334Z,7.20
2019-03-17T09:40:40.066Z,7.30
2019-03-17T09:43:10.702Z,7.40
2019-03-17T09:45:40.363Z,7.40
2019-03-17T09:48:10.016Z,7.50
2019-03-17T09:50:39.742Z,7.50
2019-03-17T09:53:09.344Z,7.60
2019-03-17T09:55:39.025Z,7.60
2019-03-17T09:58:08.705Z,7.70
2019-03-17T10:00:38.393Z,7.80
2019-03-17T10:03:08.040Z,7.80
2019-03-17T10:05:37.632Z,7.80
2019-03-17T10:08:07.316Z,7.90
2019-03-17T10:10:38.024Z,7.90
2019-03-17T10:13:07.684Z,7.90
2019-03-17T10:15:37.401Z,7.90
2019-03-17T10:18:07.110Z,8.00
2019-03-17T10:20:36.719Z,8.00
2019-03-17T10:23:06.420Z,7.90
2019-03-17T10:25:36.021Z,8.00
2019-03-17T10:28:05.682Z,8.00
2019-03-17T10:30:35.254Z,8.00
2019-03-17T10:33:04.831Z,8.10
2019-03-17T10:35:34.470Z,8.10
2019-03-17T10:38:04.082Z,8.20
2019-03-17T10:40:33.690Z,8.20
2019-03-17T10:43:03.310Z,8.30
2019-03-17T10:45:32.980Z,8.30
2019-03-17T10:48:02.626Z,8.40
2019-03-17T10:50:32.304Z,8.40
2019-03-17T10:53:01.930Z,8.40
2019-03-17T10:55:31.690Z,8.40
2019-03-17T10:58:01.352Z,8.40
2019-03-17T11:00:30.963Z,8.30
2019-03-17T11:03:01.703Z,8.20
2019-03-17T11:05:31.402Z,8.30
2019-03-17T11:08:01.147Z,8.20
2019-03-17T11:10:30.738Z,8.20
2019-03-17T11:13:00.331Z,8.10
2019-03-17T11:15:30.001Z,8.10
2019-03-17T11:17:59.616Z,8.10
2019-03-17T11:20:29.346Z,8.10
2019-03-17T11:22:59.012Z,8.10
2019-03-17T11:25:28.784Z,8.00
2019-03-17T11:27:58.370Z,8.00
2019-03-17T11:30:27.968Z,8.00
2019-03-17T11:32:57.612Z,8.00
2019-03-17T11:35:27.201Z,8.00
2019-03-17T11:37:56.874Z,7.90
2019-03-17T11:40:26.447Z,7.90
2019-03-17T11:42:56.044Z,7.80
2019-03-17T11:45:26.208Z,7.90
2019-03-17T11:47:56.776Z,8.10
2019-03-17T11:50:26.437Z,8.20
2019-03-17T11:52:56.093Z,8.40
2019-03-17T11:55:25.743Z,8.50
2019-03-17T11:57:55.492Z,8.50
2019-03-17T12:00:25.070Z,8.50
2019-03-17T12:02:54.729Z,8.70
2019-03-17T12:05:24.409Z,8.80
2019-03-17T12:07:53.974Z,9.10
2019-03-17T12:10:24.266Z,9.10
2019-03-17T12:12:53.878Z,9.20
2019-03-17T12:15:26.311Z,9.30
2019-03-17T12:17:57.026Z,9.50
2019-03-17T12:20:26.730Z,9.50
2019-03-17T12:22:56.411Z,9.40
2019-03-17T12:25:26.060Z,9.30
2019-03-17T12:27:55.820Z,9.30
2019-03-17T12:30:28.839Z,9.10
2019-03-17T12:32:58.491Z,9.10
2019-03-17T12:35:28.063Z,9.20
2019-03-17T12:37:57.685Z,9.40
2019-03-17T12:40:27.250Z,9.30
2019-03-17T12:42:56.970Z,9.50
2019-03-17T12:45:26.637Z,9.80
2019-03-17T12:47:56.350Z,9.80
2019-03-17T12:50:27.157Z,9.80
2019-03-17T12:52:56.902Z,9.80
2019-03-17T12:55:26.589Z,10.00
2019-03-17T12:57:56.408Z,10.00
2019-03-17T13:00:28.996Z,9.90
2019-03-17T13:02:58.671Z,9.90
2019-03-17T13:05:28.386Z,9.90
2019-03-17T13:07:58.161Z,10.00
2019-03-17T13:10:27.816Z,10.00
2019-03-17T13:12:57.404Z,9.80
2019-03-17T13:15:27.066Z,10.00
2019-03-17T13:17:56.778Z,10.00
2019-03-17T13:20:29.459Z,10.00
2019-03-17T13:22:57.799Z,10.00
2019-03-17T13:25:27.526Z,9.60
2019-03-17T13:27:57.263Z,9.70
2019-03-17T13:30:26.980Z,9.90
2019-03-17T13:32:56.642Z,9.80
2019-03-17T13:35:26.303Z,9.90
2019-03-17T13:37:55.934Z,10.10
2019-03-17T13:40:44.887Z,10.10
2019-03-17T13:43:14.527Z,9.90
2019-03-17T13:45:44.201Z,10.00
2019-03-17T13:48:13.868Z,10.00
2019-03-17T13:50:43.510Z,10.10
2019-03-17T13:53:13.119Z,10.20
2019-03-17T13:55:42.781Z,10.00
2019-03-17T13:58:12.621Z,10.00
2019-03-17T14:00:42.300Z,10.00
2019-03-17T14:03:11.975Z,10.00
2019-03-17T14:05:41.628Z,10.00
2019-03-17T14:08:11.351Z,10.10
2019-03-17T14:10:41.707Z,10.20
2019-03-17T14:13:11.553Z,10.10
2019-03-17T14:15:41.275Z,10.10
2019-03-17T14:18:10.983Z,9.80
2019-03-17T14:20:40.661Z,9.70
2019-03-17T14:23:10.236Z,9.80
2019-03-17T14:25:39.879Z,9.70
2019-03-17T14:28:09.477Z,9.70
2019-03-17T14:30:39.255Z,9.50
2019-03-17T14:33:08.932Z,9.60
2019-03-17T14:35:38.656Z,9.60
2019-03-17T14:38:08.381Z,9.70
2019-03-17T14:40:37.983Z,9.60
2019-03-17T14:43:07.666Z,9.40
2019-03-17T14:45:37.328Z,9.40
2019-03-17T14:48:06.984Z,9.30
2019-03-17T14:50:36.671Z,9.20
2019-03-17T14:53:06.261Z,9.10
2019-03-17T14:55:35.985Z,9.00
2019-03-17T14:58:05.716Z,8.90
2019-03-17T15:00:35.373Z,8.70
2019-03-17T15:03:05.023Z,8.60
2019-03-17T15:05:34.609Z,8.50
2019-03-17T15:08:04.272Z,8.40
2019-03-17T15:10:33.958Z,8.30
2019-03-17T15:13:03.708Z,8.30
2019-03-17T15:15:33.407Z,8.40
2019-03-17T15:18:03.151Z,8.30
2019-03-17T15:20:33.624Z,8.20
2019-03-17T15:23:03.372Z,8.20
2019-03-17T15:25:33.054Z,8.10
2019-03-17T15:28:02.636Z,7.90
2019-03-17T15:30:34.020Z,7.90
2019-03-17T15:33:03.672Z,7.90
2019-03-17T15:35:33.390Z,8.00
2019-03-17T15:38:03.085Z,7.90
2019-03-17T15:40:32.816Z,7.90
2019-03-17T15:43:02.584Z,7.70
2019-03-17T15:45:34.955Z,7.80
2019-03-17T15:48:04.656Z,7.60
2019-03-17T15:50:34.600Z,7.60
2019-03-17T15:53:04.278Z,7.60
2019-03-17T15:55:33.936Z,7.60
2019-03-17T15:58:03.543Z,7.50
2019-03-17T16:00:33.198Z,7.50
2019-03-17T16:03:02.907Z,7.50
2019-03-17T16:05:34.318Z,7.50
2019-03-17T16:08:04.036Z,7.30
2019-03-17T16:10:33.746Z,7.40
2019-03-17T16:13:03.482Z,7.30
2019-03-17T16:15:33.252Z,7.20
2019-03-17T16:18:02.987Z,7.20
2019-03-17T16:20:32.657Z,7.10
2019-03-17T16:23:02.417Z,7.10
2019-03-17T16:25:36.974Z,7.10
2019-03-17T16:28:06.658Z,7.10
2019-03-17T16:30:36.328Z,7.00
2019-03-17T16:33:06.060Z,7.00
2019-03-17T16:35:35.719Z,6.90
2019-03-17T16:38:05.502Z,6.90
2019-03-17T16:40:36.009Z,6.80
2019-03-17T16:43:06.161Z,6.80
2019-03-17T16:45:35.726Z,6.70
2019-03-17T16:48:05.410Z,6.60
2019-03-17T16:50:35.107Z,6.60
2019-03-17T16:53:04.827Z,6.60
2019-03-17T16:55:34.489Z,6.60
2019-03-17T16:58:04.213Z,6.50
2019-03-17T17:00:34.261Z,6.50
2019-03-17T17:03:03.934Z,6.40
2019-03-17T17:05:35.090Z,6.40
2019-03-17T17:08:04.999Z,6.40
2019-03-17T17:10:34.886Z,6.40
2019-03-17T17:13:04.628Z,6.30
2019-03-17T17:15:35.262Z,6.40
2019-03-17T17:18:04.903Z,6.30
2019-03-17T17:20:36.125Z,6.30
2019-03-17T17:23:05.704Z,6.30
2019-03-17T17:25:35.759Z,6.20
2019-03-17T17:28:05.487Z,6.30
2019-03-17T17:30:36.178Z,6.20
2019-03-17T17:33:05.904Z,6.30
2019-03-17T17:35:35.654Z,6.20
2019-03-17T17:38:05.310Z,6.10
2019-03-17T17:40:34.969Z,6.10
2019-03-17T17:43:04.568Z,6.20
2019-03-17T17:45:34.290Z,6.20
2019-03-17T17:48:04.078Z,6.10
2019-03-17T17:50:33.952Z,6.10
2019-03-17T17:53:03.702Z,6.10
2019-03-17T17:55:33.322Z,6.10
2019-03-17T17:58:03.078Z,6.10
2019-03-17T18:00:40.153Z,6.10
2019-03-17T18:03:09.931Z,6.10
2019-03-17T18:05:39.657Z,6.00
2019-03-17T18:08:09.298Z,6.00
2019-03-17T18:10:38.923Z,6.00
2019-03-17T18:13:08.634Z,6.00
2019-03-17T18:15:38.376Z,6.00
2019-03-17T18:18:08.037Z,5.90
2019-03-17T18:20:37.775Z,5.90
2019-03-17T18:23:17.327Z,5.80
2019-03-17T18:25:40.021Z,5.80
2019-03-17T18:28:09.709Z,5.80
2019-03-17T18:30:39.440Z,5.80
2019-03-17T18:33:09.233Z,5.60
2019-03-17T18:35:38.962Z,5.60
2019-03-17T18:38:08.756Z,5.40
2019-03-17T18:40:42.267Z,5.40
2019-03-17T18:43:11.228Z,5.30
2019-03-17T18:45:42.615Z,5.30
2019-03-17T18:48:12.212Z,5.20
2019-03-17T18:50:41.820Z,5.10
2019-03-17T18:53:11.462Z,5.10
2019-03-17T18:55:41.167Z,5.00
2019-03-17T18:58:10.868Z,4.90
2019-03-17T19:00:40.512Z,4.80
2019-03-17T19:03:10.238Z,4.80
2019-03-17T19:05:39.913Z,4.80
2019-03-17T19:08:09.556Z,4.70
2019-03-17T19:10:39.243Z,4.70
2019-03-17T19:13:28.176Z,4.70
2019-03-17T19:15:57.856Z,4.70
2019-03-17T19:18:27.491Z,4.70
2019-03-17T19:20:57.169Z,4.60
2019-03-17T19:23:26.946Z,4.70
2019-03-17T19:25:56.596Z,4.70
2019-03-17T19:28:26.249Z,4.70
2019-03-17T19:30:55.993Z,4.70
2019-03-17T19:33:25.634Z,4.80
2019-03-17T19:35:55.473Z,4.90
2019-03-17T19:38:25.200Z,5.00
2019-03-17T19:40:54.926Z,5.00
2019-03-17T19:43:24.594Z,5.10
2019-03-17T19:45:54.244Z,5.10
2019-03-17T19:48:23.948Z,5.20
2019-03-17T19:50:53.599Z,5.20
2019-03-17T19:53:24.292Z,5.20
2019-03-17T19:55:53.951Z,5.20
2019-03-17T19:58:23.592Z,5.20
2019-03-17T20:00:54.356Z,5.20
2019-03-17T20:03:24.019Z,5.10
2019-03-17T20:06:02.146Z,5.20
2019-03-17T20:08:25.180Z,5.10
2019-03-17T20:10:54.839Z,5.10
2019-03-17T20:13:24.589Z,5.10
2019-03-17T20:15:54.258Z,5.10
2019-03-17T20:18:23.971Z,5.10
2019-03-17T20:20:53.731Z,5.00
2019-03-17T20:23:23.461Z,5.00
2019-03-17T20:25:54.135Z,5.00
2019-03-17T20:28:23.803Z,5.00
2019-03-17T20:30:53.537Z,4.90
2019-03-17T20:33:23.207Z,4.90
2019-03-17T20:35:53.090Z,4.80
2019-03-17T20:38:23.119Z,4.80
2019-03-17T20:40:52.749Z,4.80
2019-03-17T20:43:34.282Z,4.70
2019-03-17T20:45:54.146Z,4.80
2019-03-17T20:48:23.946Z,4.70
2019-03-17T20:50:53.686Z,4.70
2019-03-17T20:53:23.438Z,4.70
2019-03-17T20:55:53.123Z,4.60
2019-03-17T20:58:22.701Z,4.60
2019-03-17T21:00:52.358Z,4.60
2019-03-17T21:03:21.998Z,4.60
2019-03-17T21:05:51.769Z,4.60
2019-03-17T21:08:21.912Z,4.60
2019-03-17T21:10:51.575Z,4.60
2019-03-17T21:13:21.290Z,4.50
2019-03-17T21:15:51.019Z,4.50
2019-03-17T21:18:21.837Z,4.50
2019-03-17T21:20:51.568Z,4.50
2019-03-17T21:23:21.251Z,4.40
2019-03-17T21:25:50.932Z,4.50
2019-03-17T21:28:20.677Z,4.40
2019-03-17T21:30:50.316Z,4.50
2019-03-17T21:33:20.061Z,4.50
2019-03-17T21:35:49.647Z,4.50
2019-03-17T21:38:19.344Z,4.50
2019-03-17T21:41:06.180Z,4.50
2019-03-17T21:43:20.209Z,4.50
2019-03-17T21:45:49.946Z,4.50
2019-03-17T21:48:19.606Z,4.50
2019-03-17T21:50:49.241Z,4.50
2019-03-17T21:53:18.910Z,4.50
2019-03-17T21:55:48.573Z,4.40
2019-03-17T21:58:18.228Z,4.50
2019-03-17T22:00:47.906Z,4.40
2019-03-17T22:03:20.964Z,4.40
2019-03-17T22:05:50.601Z,4.40
2019-03-17T22:08:20.282Z,4.40
2019-03-17T22:10:49.947Z,4.40
2019-03-17T22:13:20.598Z,4.40
2019-03-17T22:15:50.253Z,4.40
2019-03-17T22:18:20.022Z,4.40
2019-03-17T22:20:49.728Z,4.40
2019-03-17T22:23:20.523Z,4.40
2019-03-17T22:25:50.236Z,4.40
2019-03-17T22:28:19.924Z,4.30
2019-03-17T22:30:49.582Z,4.40
2019-03-17T22:33:19.298Z,4.40
2019-03-17T22:35:48.949Z,4.40
2019-03-17T22:38:18.557Z,4.40
2019-03-17T22:40:48.202Z,4.40
2019-03-17T22:43:17.796Z,4.40
2019-03-17T22:45:47.386Z,4.30
2019-03-17T22:48:18.030Z,4.40
2019-03-17T22:50:47.627Z,4.40
2019-03-17T22:53:17.322Z,4.40
2019-03-17T22:55:46.974Z,4.40
2019-03-17T22:58:16.619Z,4.40
2019-03-17T23:00:46.355Z,4.40
2019-03-17T23:03:16.172Z,4.30
2019-03-17T23:05:45.815Z,4.30
2019-03-17T23:08:16.382Z,4.30
2019-03-17T23:10:46.028Z,4.20
2019-03-17T23:13:15.797Z,4.20
2019-03-17T23:15:45.380Z,4.20
2019-03-17T23:18:15.034Z,4.10
2019-03-17T23:20:44.737Z,4.10
2019-03-17T23:23:14.400Z,4.10
2019-03-17T23:25:44.083Z,4.00
2019-03-17T23:28:13.852Z,4.10
2019-03-17T23:30:43.499Z,4.00
2019-03-17T23:33:13.223Z,4.00
2019-03-17T23:35:42.816Z,4.00
2019-03-17T23:38:12.532Z,4.00
2019-03-17T23:40:42.204Z,4.00
2019-03-17T23:43:11.870Z,4.00
2019-03-17T23:45:41.525Z,4.00
2019-03-17T23:48:11.112Z,4.00
2019-03-17T23:50:41.774Z,4.00
2019-03-17T23:53:11.376Z,4.00
2019-03-17T23:55:41.057Z,4.00
2019-03-17T23:58:10.619Z,4.00
